createdAt,value
2023-04-08T00:00:49.762Z,4.80
2023-04-08T00:03:17.319Z,4.80
2023-04-08T00:05:44.616Z,4.80
2023-04-08T00:08:11.578Z,4.90
2023-04-08T00:10:38.625Z,4.80
2023-04-08T00:13:05.839Z,4.90
2023-04-08T00:15:32.905Z,4.80
2023-04-08T00:17:59.975Z,4.80
2023-04-08T00:20:27.188Z,4.80
2023-04-08T00:22:54.341Z,4.80
2023-04-08T00:25:23.407Z,4.80
2023-04-08T00:27:52.116Z,4.80
2023-04-08T00:30:19.515Z,4.80
2023-04-08T00:32:46.922Z,4.80
2023-04-08T00:35:14.503Z,4.80
2023-04-08T00:37:41.673Z,4.80
2023-04-08T00:40:09.188Z,4.70
2023-04-08T00:42:36.751Z,4.70
2023-04-08T00:45:04.095Z,4.70
2023-04-08T00:47:31.594Z,4.70
2023-04-08T00:49:58.910Z,4.70
2023-04-08T00:52:26.320Z,4.80
2023-04-08T00:54:53.405Z,4.70
2023-04-08T00:57:20.974Z,4.70
2023-04-08T00:59:48.079Z,4.80
2023-04-08T01:02:34.429Z,4.70
2023-04-08T01:05:09.544Z,4.70
2023-04-08T01:07:47.113Z,4.80
2023-04-08T01:10:22.291Z,4.70
2023-04-08T01:12:55.943Z,4.80
2023-04-08T01:15:26.486Z,4.80
2023-04-08T01:17:56.087Z,4.70
2023-04-08T01:20:25.316Z,4.70
2023-04-08T01:23:01.947Z,4.70
2023-04-08T01:25:37.293Z,4.70
2023-04-08T01:28:07.416Z,4.70
2023-04-08T01:30:37.656Z,4.70
2023-04-08T01:33:06.476Z,4.70
2023-04-08T01:35:34.129Z,4.80
2023-04-08T01:38:03.195Z,4.80
2023-04-08T01:40:30.900Z,4.80
2023-04-08T01:43:00.910Z,4.70
2023-04-08T01:45:29.139Z,4.80
2023-04-08T01:47:59.967Z,4.70
2023-04-08T01:50:29.179Z,4.80
2023-04-08T01:52:57.297Z,4.70
2023-04-08T01:55:25.394Z,4.60
2023-04-08T01:57:53.577Z,4.70
2023-04-08T02:00:26.542Z,4.80
2023-04-08T02:02:54.746Z,4.70
2023-04-08T02:05:22.175Z,4.70
2023-04-08T02:07:49.943Z,4.60
2023-04-08T02:10:16.988Z,4.60
2023-04-08T02:12:44.857Z,4.60
2023-04-08T02:15:13.545Z,4.60
2023-04-08T02:17:47.422Z,4.60
2023-04-08T02:20:34.978Z,4.70
2023-04-08T02:23:08.455Z,4.60
2023-04-08T02:25:39.099Z,4.50
2023-04-08T02:28:10.804Z,4.50
2023-04-08T02:30:47.404Z,4.50
2023-04-08T02:33:15.554Z,4.60
2023-04-08T02:35:45.337Z,4.50
2023-04-08T02:38:12.870Z,4.50
2023-04-08T02:40:39.963Z,4.50
2023-04-08T02:43:07.327Z,4.50
2023-04-08T02:45:42.572Z,4.60
2023-04-08T02:48:10.300Z,4.50
2023-04-08T02:50:37.657Z,4.50
2023-04-08T02:53:04.801Z,4.50
2023-04-08T02:55:33.600Z,4.60
2023-04-08T02:58:00.826Z,4.60
2023-04-08T03:00:28.138Z,4.50
2023-04-08T03:02:55.470Z,4.50
2023-04-08T03:05:22.675Z,4.60
2023-04-08T03:07:49.739Z,4.60
2023-04-08T03:10:16.958Z,4.50
2023-04-08T03:12:44.176Z,4.50
2023-04-08T03:15:11.276Z,4.50
2023-04-08T03:17:38.331Z,4.50
2023-04-08T03:20:06.226Z,4.50
2023-04-08T03:22:33.974Z,4.50
2023-04-08T03:25:01.184Z,4.50
2023-04-08T03:27:28.323Z,4.50
2023-04-08T03:29:55.464Z,4.50
2023-04-08T03:32:22.564Z,4.50
2023-04-08T03:34:51.396Z,4.50
2023-04-08T03:37:19.263Z,4.50
2023-04-08T03:39:46.607Z,4.50
2023-04-08T03:42:13.739Z,4.40
2023-04-08T03:44:40.932Z,4.50
2023-04-08T03:47:08.010Z,4.50
2023-04-08T03:49:35.097Z,4.50
2023-04-08T03:52:02.155Z,4.50
2023-04-08T03:54:29.384Z,4.40
2023-04-08T03:56:56.532Z,4.50
2023-04-08T03:59:23.666Z,4.50
2023-04-08T04:01:51.577Z,4.50
2023-04-08T04:04:19.261Z,4.50
2023-04-08T04:06:46.527Z,4.50
2023-04-08T04:09:15.299Z,4.50
2023-04-08T04:11:42.471Z,4.50
2023-04-08T04:14:09.501Z,4.50
2023-04-08T04:16:36.547Z,4.50
2023-04-08T04:19:03.647Z,4.50
2023-04-08T04:21:30.729Z,4.50
2023-04-08T04:23:57.756Z,4.50
2023-04-08T04:26:24.792Z,4.50
2023-04-08T04:28:52.067Z,4.50
2023-04-08T04:31:24.007Z,4.50
2023-04-08T04:33:51.020Z,4.50
2023-04-08T04:36:18.327Z,4.50
2023-04-08T04:38:47.696Z,4.50
2023-04-08T04:41:16.370Z,4.60
2023-04-08T04:43:43.334Z,4.60
2023-04-08T04:46:10.932Z,4.50
2023-04-08T04:48:38.295Z,4.50
2023-04-08T04:51:05.778Z,4.60
2023-04-08T04:53:32.796Z,4.50
2023-04-08T04:56:02.134Z,4.50
2023-04-08T04:58:31.028Z,4.50
2023-04-08T05:00:58.233Z,4.50
2023-04-08T05:03:25.487Z,4.50
2023-04-08T05:05:53.729Z,4.50
2023-04-08T05:08:21.700Z,4.50
2023-04-08T05:10:50.918Z,4.50
2023-04-08T05:13:18.938Z,4.50
2023-04-08T05:15:46.519Z,4.50
2023-04-08T05:18:13.997Z,4.50
2023-04-08T05:20:41.001Z,4.50
2023-04-08T05:23:08.855Z,4.50
2023-04-08T05:25:36.309Z,4.50
2023-04-08T05:28:03.736Z,4.60
2023-04-08T05:30:31.092Z,4.60
2023-04-08T05:33:00.363Z,4.50
2023-04-08T05:35:28.448Z,4.60
2023-04-08T05:37:55.858Z,4.50
2023-04-08T05:40:23.046Z,4.50
2023-04-08T05:42:50.113Z,4.50
2023-04-08T05:45:17.350Z,4.50
2023-04-08T05:47:44.445Z,4.50
2023-04-08T05:50:11.746Z,4.50
2023-04-08T05:52:45.904Z,4.60
2023-04-08T05:55:14.200Z,4.60
2023-04-08T05:57:41.836Z,4.50
2023-04-08T06:00:11.109Z,4.50
2023-04-08T06:02:39.018Z,4.40
2023-04-08T06:05:06.830Z,4.50
2023-04-08T06:07:34.444Z,4.50
2023-04-08T06:10:01.925Z,4.50
2023-04-08T06:12:29.152Z,4.50
2023-04-08T06:14:56.666Z,4.50
2023-04-08T06:17:23.935Z,4.50
2023-04-08T06:19:51.075Z,4.50
2023-04-08T06:22:18.221Z,4.50
2023-04-08T06:24:47.143Z,4.60
2023-04-08T06:27:14.282Z,4.60
2023-04-08T06:29:42.978Z,4.60
2023-04-08T06:32:10.921Z,4.50
2023-04-08T06:34:38.429Z,4.60
2023-04-08T06:37:06.469Z,4.60
2023-04-08T06:39:34.210Z,4.70
2023-04-08T06:42:01.722Z,4.70
2023-04-08T06:44:47.482Z,4.60
2023-04-08T06:47:14.574Z,4.60
2023-04-08T06:49:41.988Z,4.70
2023-04-08T06:52:09.137Z,4.70
2023-04-08T06:54:36.248Z,4.70
2023-04-08T06:57:04.345Z,4.70
2023-04-08T06:59:31.475Z,4.70
2023-04-08T07:01:58.776Z,4.70
2023-04-08T07:04:26.842Z,4.70
2023-04-08T07:06:53.809Z,4.70
2023-04-08T07:09:20.921Z,4.70
2023-04-08T07:11:48.444Z,4.70
2023-04-08T07:14:15.681Z,4.60
2023-04-08T07:16:42.896Z,4.70
2023-04-08T07:19:10.902Z,4.80
2023-04-08T07:21:38.109Z,4.80
2023-04-08T07:24:05.502Z,4.60
2023-04-08T07:26:32.779Z,4.60
2023-04-08T07:28:59.830Z,4.70
2023-04-08T07:31:27.329Z,4.60
2023-04-08T07:33:54.540Z,4.60
2023-04-08T07:36:21.656Z,4.60
2023-04-08T07:38:49.093Z,4.70
2023-04-08T07:41:16.414Z,4.60
2023-04-08T07:43:43.605Z,4.70
2023-04-08T07:46:10.891Z,4.70
2023-04-08T07:48:38.743Z,4.80
2023-04-08T07:51:08.888Z,4.80
2023-04-08T07:53:38.098Z,4.80
2023-04-08T07:56:13.041Z,4.80
2023-04-08T07:58:41.044Z,4.90
2023-04-08T08:01:22.426Z,5.00
2023-04-08T08:03:51.273Z,5.00
2023-04-08T08:06:19.234Z,4.90
2023-04-08T08:08:46.340Z,5.00
2023-04-08T08:11:13.655Z,5.00
2023-04-08T08:13:41.955Z,5.00
2023-04-08T08:16:11.564Z,5.00
2023-04-08T08:18:40.485Z,5.00
2023-04-08T08:21:08.876Z,5.10
2023-04-08T08:23:36.177Z,5.10
2023-04-08T08:26:06.451Z,5.20
2023-04-08T08:28:33.975Z,5.30
2023-04-08T08:31:01.186Z,5.40
2023-04-08T08:33:28.294Z,5.40
2023-04-08T08:35:56.179Z,5.40
2023-04-08T08:38:23.324Z,5.30
2023-04-08T08:40:59.213Z,5.30
2023-04-08T08:43:27.528Z,5.40
2023-04-08T08:45:55.061Z,5.40
2023-04-08T08:48:22.872Z,5.40
2023-04-08T08:50:49.973Z,5.70
2023-04-08T08:53:17.155Z,5.30
2023-04-08T08:56:13.580Z,5.40
2023-04-08T08:58:31.505Z,5.40
2023-04-08T09:00:58.607Z,5.50
2023-04-08T09:03:30.638Z,5.40
2023-04-08T09:06:00.800Z,5.30
2023-04-08T09:08:31.395Z,5.40
2023-04-08T09:11:12.570Z,5.40
2023-04-08T09:13:40.115Z,5.40
2023-04-08T09:16:10.397Z,5.60
2023-04-08T09:18:38.815Z,5.40
2023-04-08T09:21:07.346Z,5.40
2023-04-08T09:23:48.280Z,5.30
2023-04-08T09:26:22.304Z,5.30
2023-04-08T09:29:25.204Z,5.30
2023-04-08T09:31:58.545Z,5.30
2023-04-08T09:34:27.559Z,5.30
2023-04-08T09:36:55.986Z,5.30
2023-04-08T09:39:24.053Z,5.40
2023-04-08T09:41:52.481Z,5.40
2023-04-08T09:44:21.936Z,5.50
2023-04-08T09:47:15.591Z,5.40
2023-04-08T09:49:55.676Z,5.50
2023-04-08T09:52:33.557Z,5.50
2023-04-08T09:55:05.571Z,5.50
2023-04-08T09:57:51.316Z,5.50
2023-04-08T10:00:19.497Z,5.50
2023-04-08T10:03:01.156Z,5.40
2023-04-08T10:05:29.516Z,5.40
2023-04-08T10:07:57.501Z,5.40
2023-04-08T10:10:25.653Z,5.40
2023-04-08T10:12:53.254Z,5.60
2023-04-08T10:15:30.072Z,5.70
2023-04-08T10:18:20.699Z,5.60
2023-04-08T10:20:49.429Z,5.80
2023-04-08T10:23:18.644Z,5.80
2023-04-08T10:25:49.651Z,5.90
2023-04-08T10:28:19.271Z,6.00
2023-04-08T10:30:51.098Z,6.00
2023-04-08T10:33:40.669Z,6.00
2023-04-08T10:36:11.408Z,5.90
2023-04-08T10:38:44.302Z,5.80
2023-04-08T10:41:14.250Z,5.80
2023-04-08T10:43:41.647Z,5.80
2023-04-08T10:46:12.237Z,5.90
2023-04-08T10:48:39.437Z,5.90
2023-04-08T10:51:06.639Z,5.90
2023-04-08T10:53:36.068Z,5.90
2023-04-08T10:56:15.468Z,5.90
2023-04-08T10:58:55.165Z,5.90
2023-04-08T11:01:22.777Z,6.10
2023-04-08T11:03:50.737Z,6.20
2023-04-08T11:06:18.362Z,6.20
2023-04-08T11:08:46.176Z,6.30
2023-04-08T11:11:13.344Z,6.30
2023-04-08T11:13:51.197Z,6.30
2023-04-08T11:16:21.010Z,6.40
2023-04-08T11:18:48.421Z,6.30
2023-04-08T11:21:16.806Z,6.20
2023-04-08T11:23:43.988Z,6.20
2023-04-08T11:26:11.595Z,6.30
2023-04-08T11:28:39.200Z,6.30
2023-04-08T11:31:08.970Z,6.20
2023-04-08T11:33:36.480Z,6.30
2023-04-08T11:36:04.848Z,6.20
2023-04-08T11:38:32.141Z,6.10
2023-04-08T11:41:00.627Z,6.00
2023-04-08T11:43:28.758Z,6.00
2023-04-08T11:45:57.107Z,6.00
2023-04-08T11:48:24.268Z,6.00
2023-04-08T11:51:04.742Z,6.10
2023-04-08T11:53:31.818Z,6.10
2023-04-08T11:55:58.893Z,6.20
2023-04-08T11:58:26.079Z,6.30
2023-04-08T12:00:53.150Z,6.30
2023-04-08T12:03:20.498Z,6.40
2023-04-08T12:05:48.468Z,6.60
2023-04-08T12:08:15.510Z,6.70
2023-04-08T12:10:42.895Z,6.80
2023-04-08T12:13:10.400Z,6.90
2023-04-08T12:15:37.879Z,6.40
2023-04-08T12:18:06.037Z,6.30
2023-04-08T12:20:33.653Z,6.30
2023-04-08T12:23:00.844Z,6.30
2023-04-08T12:25:27.951Z,6.30
2023-04-08T12:27:55.053Z,6.30
2023-04-08T12:30:24.922Z,6.30
2023-04-08T12:32:53.466Z,6.50
2023-04-08T12:35:20.954Z,6.50
2023-04-08T12:37:48.041Z,6.50
2023-04-08T12:40:15.571Z,6.60
2023-04-08T12:42:42.811Z,6.70
2023-04-08T12:45:10.068Z,6.70
2023-04-08T12:47:37.319Z,6.60
2023-04-08T12:50:04.887Z,6.60
2023-04-08T12:52:32.422Z,6.40
2023-04-08T12:54:59.770Z,6.40
2023-04-08T12:57:28.609Z,6.40
2023-04-08T12:59:56.355Z,6.40
2023-04-08T13:02:25.646Z,6.50
2023-04-08T13:04:53.839Z,6.50
2023-04-08T13:07:21.092Z,6.50
2023-04-08T13:09:48.527Z,6.60
2023-04-08T13:12:16.374Z,6.70
2023-04-08T13:14:43.472Z,6.80
2023-04-08T13:17:10.846Z,6.90
2023-04-08T13:19:37.913Z,6.80
2023-04-08T13:22:05.017Z,6.70
2023-04-08T13:24:32.059Z,6.70
2023-04-08T13:26:59.350Z,6.60
2023-04-08T13:29:26.449Z,6.50
2023-04-08T13:31:53.695Z,6.60
2023-04-08T13:34:21.214Z,6.60
2023-04-08T13:36:48.356Z,6.70
2023-04-08T13:39:15.541Z,6.70
2023-04-08T13:41:42.701Z,6.70
2023-04-08T13:44:10.585Z,6.60
2023-04-08T13:46:37.834Z,6.70
2023-04-08T13:49:04.843Z,6.80
2023-04-08T13:51:32.761Z,6.90
2023-04-08T13:53:59.852Z,6.80
2023-04-08T13:56:27.039Z,6.80
2023-04-08T13:58:57.573Z,6.80
2023-04-08T14:01:25.180Z,6.50
2023-04-08T14:03:52.888Z,6.70
2023-04-08T14:06:20.240Z,6.90
2023-04-08T14:08:47.507Z,6.70
2023-04-08T14:11:14.589Z,6.70
2023-04-08T14:13:41.659Z,6.70
2023-04-08T14:16:09.166Z,6.70
2023-04-08T14:18:36.512Z,6.60
2023-04-08T14:21:04.232Z,6.60
2023-04-08T14:23:31.292Z,6.60
2023-04-08T14:25:58.375Z,6.60
2023-04-08T14:28:25.450Z,6.60
2023-04-08T14:30:52.736Z,6.60
2023-04-08T14:33:20.052Z,6.60
2023-04-08T14:35:50.776Z,6.60
2023-04-08T14:38:17.976Z,6.60
2023-04-08T14:40:45.203Z,6.60
2023-04-08T14:43:13.785Z,6.50
2023-04-08T14:45:41.321Z,6.60
2023-04-08T14:48:08.751Z,6.50
2023-04-08T14:50:36.111Z,6.50
2023-04-08T14:53:03.621Z,7.10
2023-04-08T14:55:32.382Z,6.50
2023-04-08T14:58:02.566Z,6.50
2023-04-08T15:00:29.611Z,6.50
2023-04-08T15:02:56.861Z,6.60
2023-04-08T15:05:24.044Z,6.60
2023-04-08T15:07:51.166Z,5.60
2023-04-08T15:10:18.760Z,6.60
2023-04-08T15:12:46.865Z,6.60
2023-04-08T15:15:13.960Z,6.60
2023-04-08T15:17:41.188Z,6.60
2023-04-08T15:20:09.118Z,6.50
2023-04-08T15:22:36.294Z,6.50
2023-04-08T15:25:05.184Z,6.50
2023-04-08T15:27:32.769Z,6.60
2023-04-08T15:29:59.838Z,6.60
2023-04-08T15:32:30.534Z,6.60
2023-04-08T15:34:57.913Z,6.60
2023-04-08T15:37:25.108Z,6.60
2023-04-08T15:39:55.544Z,6.60
2023-04-08T15:42:23.034Z,6.60
2023-04-08T15:44:50.352Z,6.60
2023-04-08T15:47:17.506Z,6.70
2023-04-08T15:49:44.963Z,6.60
2023-04-08T15:52:12.017Z,6.60
2023-04-08T15:54:39.078Z,6.60
2023-04-08T15:57:06.756Z,6.60
2023-04-08T15:59:35.352Z,6.60
2023-04-08T16:02:02.425Z,6.50
2023-04-08T16:04:29.834Z,6.50
2023-04-08T16:06:57.080Z,6.60
2023-04-08T16:09:26.858Z,6.50
2023-04-08T16:11:54.036Z,6.50
2023-04-08T16:14:21.420Z,6.40
2023-04-08T16:16:49.334Z,6.40
2023-04-08T16:19:16.697Z,6.40
2023-04-08T16:21:44.156Z,6.40
2023-04-08T16:24:11.665Z,6.30
2023-04-08T16:26:38.727Z,6.30
2023-04-08T16:29:06.202Z,6.20
2023-04-08T16:31:33.362Z,6.10
2023-04-08T16:34:00.573Z,6.10
2023-04-08T16:36:27.808Z,6.10
2023-04-08T16:38:54.928Z,6.00
2023-04-08T16:41:21.954Z,6.00
2023-04-08T16:43:49.443Z,6.00
2023-04-08T16:46:17.635Z,6.00
2023-04-08T16:48:45.158Z,5.90
2023-04-08T16:51:12.253Z,6.00
2023-04-08T16:53:39.701Z,5.90
2023-04-08T16:56:15.861Z,5.90
2023-04-08T16:58:43.750Z,5.90
2023-04-08T17:01:14.202Z,5.90
2023-04-08T17:03:41.643Z,5.90
2023-04-08T17:06:13.830Z,5.90
2023-04-08T17:08:44.339Z,5.80
2023-04-08T17:11:13.705Z,5.90
2023-04-08T17:13:42.658Z,5.80
2023-04-08T17:16:14.887Z,5.70
2023-04-08T17:18:43.288Z,5.80
2023-04-08T17:21:10.828Z,5.80
2023-04-08T17:23:38.339Z,5.80
2023-04-08T17:26:09.761Z,5.90
2023-04-08T17:28:37.073Z,5.70
2023-04-08T17:31:04.305Z,5.80
2023-04-08T17:33:31.661Z,5.70
2023-04-08T17:35:58.745Z,5.70
2023-04-08T17:38:26.003Z,5.70
2023-04-08T17:40:53.095Z,5.70
2023-04-08T17:43:20.120Z,5.70
2023-04-08T17:45:47.356Z,5.70
2023-04-08T17:48:14.643Z,5.70
2023-04-08T17:50:41.676Z,5.70
2023-04-08T17:53:08.904Z,5.70
2023-04-08T17:55:36.073Z,5.60
2023-04-08T17:58:04.417Z,5.70
2023-04-08T18:00:31.579Z,5.70
2023-04-08T18:02:58.757Z,5.60
2023-04-08T18:05:27.485Z,5.60
2023-04-08T18:07:54.587Z,5.60
2023-04-08T18:10:24.613Z,5.60
2023-04-08T18:12:57.835Z,5.70
2023-04-08T18:15:30.996Z,5.60
2023-04-08T18:17:57.985Z,5.60
2023-04-08T18:20:25.071Z,5.60
2023-04-08T18:22:52.094Z,5.60
2023-04-08T18:25:22.372Z,5.60
2023-04-08T18:27:50.069Z,5.60
2023-04-08T18:30:17.167Z,5.60
2023-04-08T18:32:44.209Z,5.60
2023-04-08T18:35:11.438Z,5.60
2023-04-08T18:37:38.429Z,5.60
2023-04-08T18:40:07.494Z,5.60
2023-04-08T18:42:34.537Z,5.60
2023-04-08T18:45:01.572Z,5.60
2023-04-08T18:47:28.731Z,5.60
2023-04-08T18:49:56.902Z,5.60
2023-04-08T18:52:23.983Z,5.60
2023-04-08T18:54:51.002Z,5.50
2023-04-08T18:57:18.111Z,5.50
2023-04-08T18:59:48.421Z,5.50
2023-04-08T19:02:16.516Z,5.50
2023-04-08T19:04:43.638Z,5.50
2023-04-08T19:07:11.948Z,5.50
2023-04-08T19:09:38.989Z,5.50
2023-04-08T19:12:06.004Z,5.50
2023-04-08T19:14:33.065Z,5.50
2023-04-08T19:17:00.272Z,5.50
2023-04-08T19:19:27.636Z,5.50
2023-04-08T19:21:55.219Z,5.50
2023-04-08T19:24:22.275Z,5.50
2023-04-08T19:26:50.846Z,5.40
2023-04-08T19:29:19.556Z,5.50
2023-04-08T19:31:46.792Z,5.40
2023-04-08T19:34:13.944Z,5.50
2023-04-08T19:36:41.180Z,5.40
2023-04-08T19:39:08.189Z,5.40
2023-04-08T19:41:35.454Z,5.40
2023-04-08T19:44:02.547Z,5.40
2023-04-08T19:46:29.668Z,5.40
2023-04-08T19:48:59.008Z,5.40
2023-04-08T19:51:27.481Z,5.40
2023-04-08T19:53:54.951Z,5.40
2023-04-08T19:56:22.796Z,5.30
2023-04-08T19:58:50.266Z,5.30
2023-04-08T20:01:17.695Z,5.30
2023-04-08T20:03:50.663Z,5.30
2023-04-08T20:06:18.906Z,5.40
2023-04-08T20:08:46.469Z,5.30
2023-04-08T20:11:13.642Z,5.30
2023-04-08T20:13:40.879Z,5.20
2023-04-08T20:16:08.013Z,5.20
2023-04-08T20:18:35.209Z,5.20
2023-04-08T20:21:02.246Z,5.20
2023-04-08T20:23:29.359Z,5.20
2023-04-08T20:25:56.837Z,5.20
2023-04-08T20:28:24.539Z,5.20
2023-04-08T20:30:52.562Z,5.20
2023-04-08T20:33:19.600Z,5.10
2023-04-08T20:35:47.722Z,5.10
2023-04-08T20:38:14.805Z,5.10
2023-04-08T20:40:45.573Z,5.00
2023-04-08T20:43:12.672Z,5.00
2023-04-08T20:45:39.693Z,5.00
2023-04-08T20:48:07.557Z,5.00
2023-04-08T20:50:35.047Z,5.00
2023-04-08T20:53:02.137Z,5.00
2023-04-08T20:55:29.269Z,5.00
2023-04-08T20:57:56.377Z,5.00
2023-04-08T21:00:23.538Z,5.00
2023-04-08T21:02:51.112Z,5.00
2023-04-08T21:05:18.324Z,4.90
2023-04-08T21:07:45.413Z,4.90
2023-04-08T21:10:14.229Z,4.90
2023-04-08T21:12:41.297Z,4.90
2023-04-08T21:15:08.936Z,5.00
2023-04-08T21:17:36.082Z,4.90
2023-04-08T21:20:04.469Z,4.90
2023-04-08T21:22:32.432Z,4.90
2023-04-08T21:24:59.599Z,4.90
2023-04-08T21:27:28.355Z,4.90
2023-04-08T21:29:55.420Z,4.90
2023-04-08T21:32:22.646Z,4.90
2023-04-08T21:34:56.191Z,4.90
2023-04-08T21:37:23.601Z,4.90
2023-04-08T21:39:51.559Z,4.90
2023-04-08T21:42:22.780Z,4.80
2023-04-08T21:44:50.077Z,4.90
2023-04-08T21:47:17.785Z,4.90
2023-04-08T21:49:45.472Z,4.90
2023-04-08T21:52:12.724Z,4.90
2023-04-08T21:54:39.715Z,4.90
2023-04-08T21:57:06.709Z,4.80
2023-04-08T21:59:33.740Z,4.90
2023-04-08T22:02:01.060Z,5.30
2023-04-08T22:04:28.344Z,4.80
2023-04-08T22:06:55.390Z,4.80
2023-04-08T22:09:22.506Z,4.80
2023-04-08T22:11:49.590Z,4.70
2023-04-08T22:14:17.831Z,4.80
2023-04-08T22:16:45.302Z,4.70
2023-04-08T22:19:12.511Z,4.80
2023-04-08T22:21:39.581Z,4.70
2023-04-08T22:24:06.661Z,4.70
2023-04-08T22:26:33.762Z,4.70
2023-04-08T22:29:01.271Z,4.70
2023-04-08T22:31:28.354Z,4.60
2023-04-08T22:33:55.581Z,4.60
2023-04-08T22:36:22.746Z,4.70
2023-04-08T22:38:50.291Z,4.60
2023-04-08T22:41:22.251Z,4.60
2023-04-08T22:43:50.323Z,4.60
2023-04-08T22:46:18.716Z,4.60
2023-04-08T22:48:46.435Z,4.60
2023-04-08T22:51:13.749Z,4.60
2023-04-08T22:53:41.179Z,4.60
2023-04-08T22:56:08.276Z,4.60
2023-04-08T22:58:35.843Z,4.60
2023-04-08T23:01:10.035Z,4.70
2023-04-08T23:03:37.363Z,4.70
2023-04-08T23:06:04.600Z,4.70
2023-04-08T23:08:31.896Z,4.70
2023-04-08T23:10:59.043Z,4.70
2023-04-08T23:13:28.118Z,4.70
2023-04-08T23:15:55.373Z,4.70
2023-04-08T23:18:22.936Z,4.70
2023-04-08T23:20:57.511Z,4.70
2023-04-08T23:23:25.467Z,4.70
2023-04-08T23:25:55.575Z,4.70
2023-04-08T23:28:23.369Z,4.70
2023-04-08T23:30:50.511Z,4.70
2023-04-08T23:33:17.580Z,4.70
2023-04-08T23:35:45.067Z,4.70
2023-04-08T23:38:12.294Z,4.70
2023-04-08T23:40:39.599Z,4.70
2023-04-08T23:43:06.694Z,4.60
2023-04-08T23:45:33.697Z,4.70
2023-04-08T23:48:01.005Z,4.60
2023-04-08T23:50:28.134Z,4.60
2023-04-08T23:52:55.324Z,4.70
2023-04-08T23:55:22.315Z,4.70
2023-04-08T23:57:50.878Z,4.70
